sensor_id;sensor_type;location;lat;lon;timestamp;temperature;humidity
32895;DHT22;19251;49.484;8.260;2022-10-19T00:00:00;17.60;33.80
32895;DHT22;19251;49.484;8.260;2022-10-19T00:05:02;17.60;34.50
32895;DHT22;19251;49.484;8.260;2022-10-19T00:10:04;17.60;33.80
32895;DHT22;19251;49.484;8.260;2022-10-19T00:15:07;17.60;34.60
32895;DHT22;19251;49.484;8.260;2022-10-19T00:20:11;17.70;34.20
32895;DHT22;19251;49.484;8.260;2022-10-19T00:25:13;17.70;34.20
32895;DHT22;19251;49.484;8.260;2022-10-19T00:30:16;18.10;34.70
32895;DHT22;19251;49.484;8.260;2022-10-19T00:35:18;17.70;35.20
32895;DHT22;19251;49.484;8.260;2022-10-19T00:40:20;17.80;34.60
32895;DHT22;19251;49.484;8.260;2022-10-19T00:45:22;17.80;34.40
32895;DHT22;19251;49.484;8.260;2022-10-19T00:50:24;18.10;34.80
32895;DHT22;19251;49.484;8.260;2022-10-19T00:55:26;17.90;34.60
32895;DHT22;19251;49.484;8.260;2022-10-19T01:00:29;18.00;34.80
32895;DHT22;19251;49.484;8.260;2022-10-19T01:05:33;18.00;34.70
32895;DHT22;19251;49.484;8.260;2022-10-19T01:11:04;18.00;34.60
32895;DHT22;19251;49.484;8.260;2022-10-19T01:21:37;18.00;34.60
32895;DHT22;19251;49.484;8.260;2022-10-19T01:27:05;18.00;34.40
32895;DHT22;19251;49.484;8.260;2022-10-19T01:32:22;18.10;34.50
32895;DHT22;19251;49.484;8.260;2022-10-19T01:43:08;17.80;34.00
32895;DHT22;19251;49.484;8.260;2022-10-19T01:48:14;17.60;33.60
32895;DHT22;19251;49.484;8.260;2022-10-19T01:53:19;17.70;33.70
32895;DHT22;19251;49.484;8.260;2022-10-19T01:58:27;17.50;33.50
32895;DHT22;19251;49.484;8.260;2022-10-19T02:03:33;17.30;33.30
32895;DHT22;19251;49.484;8.260;2022-10-19T02:08:48;17.40;33.50
32895;DHT22;19251;49.484;8.260;2022-10-19T02:13:55;17.50;33.80
32895;DHT22;19251;49.484;8.260;2022-10-19T02:19:00;17.30;34.00
32895;DHT22;19251;49.484;8.260;2022-10-19T02:24:03;17.20;33.80
32895;DHT22;19251;49.484;8.260;2022-10-19T02:29:05;17.40;34.30
32895;DHT22;19251;49.484;8.260;2022-10-19T02:34:09;17.30;34.40
32895;DHT22;19251;49.484;8.260;2022-10-19T02:39:11;17.30;34.40
32895;DHT22;19251;49.484;8.260;2022-10-19T02:44:18;17.50;34.60
32895;DHT22;19251;49.484;8.260;2022-10-19T02:49:21;17.40;35.30
32895;DHT22;19251;49.484;8.260;2022-10-19T02:54:24;17.30;34.60
32895;DHT22;19251;49.484;8.260;2022-10-19T02:59:26;17.40;34.80
32895;DHT22;19251;49.484;8.260;2022-10-19T03:04:28;17.40;35.10
32895;DHT22;19251;49.484;8.260;2022-10-19T03:09:30;17.40;35.10
32895;DHT22;19251;49.484;8.260;2022-10-19T03:14:32;17.40;35.20
32895;DHT22;19251;49.484;8.260;2022-10-19T03:19:35;17.40;35.20
32895;DHT22;19251;49.484;8.260;2022-10-19T03:24:38;17.50;35.50
32895;DHT22;19251;49.484;8.260;2022-10-19T03:29:40;17.40;36.30
32895;DHT22;19251;49.484;8.260;2022-10-19T03:34:42;17.70;36.60
32895;DHT22;19251;49.484;8.260;2022-10-19T03:39:44;17.50;36.50
32895;DHT22;19251;49.484;8.260;2022-10-19T03:44:46;17.60;35.90
32895;DHT22;19251;49.484;8.260;2022-10-19T03:49:48;17.50;36.70
32895;DHT22;19251;49.484;8.260;2022-10-19T03:54:51;17.60;36.00
32895;DHT22;19251;49.484;8.260;2022-10-19T03:59:53;17.60;36.10
32895;DHT22;19251;49.484;8.260;2022-10-19T04:04:55;17.60;36.20
32895;DHT22;19251;49.484;8.260;2022-10-19T04:09:57;17.70;36.10
32895;DHT22;19251;49.484;8.260;2022-10-19T04:20:02;17.70;36.10
32895;DHT22;19251;49.484;8.260;2022-10-19T04:25:05;17.70;36.30
32895;DHT22;19251;49.484;8.260;2022-10-19T04:30:08;17.90;36.60
32895;DHT22;19251;49.484;8.260;2022-10-19T04:35:10;17.70;36.40
32895;DHT22;19251;49.484;8.260;2022-10-19T04:40:12;17.70;36.40
32895;DHT22;19251;49.484;8.260;2022-10-19T04:45:16;17.60;36.20
32895;DHT22;19251;49.484;8.260;2022-10-19T04:50:18;17.70;36.30
32895;DHT22;19251;49.484;8.260;2022-10-19T04:55:20;17.60;37.00
32895;DHT22;19251;49.484;8.260;2022-10-19T05:00:22;17.70;36.30
32895;DHT22;19251;49.484;8.260;2022-10-19T05:05:24;17.70;36.30
32895;DHT22;19251;49.484;8.260;2022-10-19T05:10:27;17.70;36.30
32895;DHT22;19251;49.484;8.260;2022-10-19T05:15:29;17.70;36.20
32895;DHT22;19251;49.484;8.260;2022-10-19T05:20:32;17.70;36.90
32895;DHT22;19251;49.484;8.260;2022-10-19T05:25:34;17.70;37.00
32895;DHT22;19251;49.484;8.260;2022-10-19T05:30:36;17.70;36.30
32895;DHT22;19251;49.484;8.260;2022-10-19T05:35:39;17.70;37.00
32895;DHT22;19251;49.484;8.260;2022-10-19T05:40:45;17.70;36.20
32895;DHT22;19251;49.484;8.260;2022-10-19T05:45:54;17.70;36.10
32895;DHT22;19251;49.484;8.260;2022-10-19T05:50:56;17.80;36.00
32895;DHT22;19251;49.484;8.260;2022-10-19T05:55:58;17.80;36.00
32895;DHT22;19251;49.484;8.260;2022-10-19T06:01:02;17.80;36.00
32895;DHT22;19251;49.484;8.260;2022-10-19T06:06:05;17.80;35.90
32895;DHT22;19251;49.484;8.260;2022-10-19T06:11:10;17.70;35.80
32895;DHT22;19251;49.484;8.260;2022-10-19T06:16:14;17.70;36.70
32895;DHT22;19251;49.484;8.260;2022-10-19T06:21:19;17.70;36.60
32895;DHT22;19251;49.484;8.260;2022-10-19T06:26:23;17.70;36.60
32895;DHT22;19251;49.484;8.260;2022-10-19T06:31:29;17.70;36.50
32895;DHT22;19251;49.484;8.260;2022-10-19T06:36:32;17.60;35.60
32895;DHT22;19251;49.484;8.260;2022-10-19T06:41:34;17.60;35.40
32895;DHT22;19251;49.484;8.260;2022-10-19T06:46:42;17.60;35.50
32895;DHT22;19251;49.484;8.260;2022-10-19T06:51:44;17.60;35.60
32895;DHT22;19251;49.484;8.260;2022-10-19T06:56:46;17.50;36.40
32895;DHT22;19251;49.484;8.260;2022-10-19T07:01:48;17.50;35.50
32895;DHT22;19251;49.484;8.260;2022-10-19T07:06:51;17.50;36.30
32895;DHT22;19251;49.484;8.260;2022-10-19T07:11:53;17.50;35.70
32895;DHT22;19251;49.484;8.260;2022-10-19T07:16:55;17.60;35.70
32895;DHT22;19251;49.484;8.260;2022-10-19T07:21:58;17.60;36.30
32895;DHT22;19251;49.484;8.260;2022-10-19T07:27:00;17.60;35.50
32895;DHT22;19251;49.484;8.260;2022-10-19T07:32:02;17.60;36.30
32895;DHT22;19251;49.484;8.260;2022-10-19T07:37:04;17.70;36.20
32895;DHT22;19251;49.484;8.260;2022-10-19T07:42:06;17.60;36.20
32895;DHT22;19251;49.484;8.260;2022-10-19T07:47:08;17.70;35.50
32895;DHT22;19251;49.484;8.260;2022-10-19T07:52:10;17.70;35.50
32895;DHT22;19251;49.484;8.260;2022-10-19T07:57:12;17.80;36.50
32895;DHT22;19251;49.484;8.260;2022-10-19T08:02:16;17.90;35.70
32895;DHT22;19251;49.484;8.260;2022-10-19T08:07:19;17.90;36.40
32895;DHT22;19251;49.484;8.260;2022-10-19T08:12:21;18.00;36.10
32895;DHT22;19251;49.484;8.260;2022-10-19T08:17:23;18.10;35.20
32895;DHT22;19251;49.484;8.260;2022-10-19T08:22:25;18.30;35.30
32895;DHT22;19251;49.484;8.260;2022-10-19T08:27:27;18.30;36.00
32895;DHT22;19251;49.484;8.260;2022-10-19T08:32:30;18.50;35.20
32895;DHT22;19251;49.484;8.260;2022-10-19T08:37:32;18.50;35.10
32895;DHT22;19251;49.484;8.260;2022-10-19T08:42:52;18.60;34.80
32895;DHT22;19251;49.484;8.260;2022-10-19T08:48:20;18.60;34.20
32895;DHT22;19251;49.484;8.260;2022-10-19T09:09:20;18.60;34.30
32895;DHT22;19251;49.484;8.260;2022-10-19T09:14:40;18.80;34.40
32895;DHT22;19251;49.484;8.260;2022-10-19T09:19:47;18.80;34.80
32895;DHT22;19251;49.484;8.260;2022-10-19T09:24:56;18.90;33.90
32895;DHT22;19251;49.484;8.260;2022-10-19T09:30:16;19.00;34.30
32895;DHT22;19251;49.484;8.260;2022-10-19T09:35:29;19.10;33.50
32895;DHT22;19251;49.484;8.260;2022-10-19T09:40:33;19.20;33.10
32895;DHT22;19251;49.484;8.260;2022-10-19T09:46:38;19.20;33.10
32895;DHT22;19251;49.484;8.260;2022-10-19T09:51:21;19.20;33.10
32895;DHT22;19251;49.484;8.260;2022-10-19T09:56:26;19.20;33.10
32895;DHT22;19251;49.484;8.260;2022-10-19T10:01:39;19.30;33.20
32895;DHT22;19251;49.484;8.260;2022-10-19T10:06:47;19.30;33.20
32895;DHT22;19251;49.484;8.260;2022-10-19T10:11:50;19.30;33.20
32895;DHT22;19251;49.484;8.260;2022-10-19T10:16:55;19.30;33.20
32895;DHT22;19251;49.484;8.260;2022-10-19T10:21:59;19.40;33.30
32895;DHT22;19251;49.484;8.260;2022-10-19T10:27:05;19.50;33.40
32895;DHT22;19251;49.484;8.260;2022-10-19T10:32:11;19.60;33.40
32895;DHT22;19251;49.484;8.260;2022-10-19T10:37:19;19.50;34.20
32895;DHT22;19251;49.484;8.260;2022-10-19T10:42:40;19.70;34.10
32895;DHT22;19251;49.484;8.260;2022-10-19T10:47:43;19.60;33.30
32895;DHT22;19251;49.484;8.260;2022-10-19T10:58:59;19.60;32.90
32895;DHT22;19251;49.484;8.260;2022-10-19T11:04:09;19.70;33.20
32895;DHT22;19251;49.484;8.260;2022-10-19T11:09:15;19.70;33.00
32895;DHT22;19251;49.484;8.260;2022-10-19T11:19:41;20.10;33.10
32895;DHT22;19251;49.484;8.260;2022-10-19T11:30:17;20.50;33.00
32895;DHT22;19251;49.484;8.260;2022-10-19T12:13:07;21.10;30.00
32895;DHT22;19251;49.484;8.260;2022-10-19T12:18:20;21.10;29.80
32895;DHT22;19251;49.484;8.260;2022-10-19T12:23:32;21.10;30.20
32895;DHT22;19251;49.484;8.260;2022-10-19T12:28:38;21.30;30.00
32895;DHT22;19251;49.484;8.260;2022-10-19T12:39:16;21.30;28.90
32895;DHT22;19251;49.484;8.260;2022-10-19T12:44:55;21.40;29.10
32895;DHT22;19251;49.484;8.260;2022-10-19T12:50:02;21.30;29.30
32895;DHT22;19251;49.484;8.260;2022-10-19T13:00:20;21.20;29.20
32895;DHT22;19251;49.484;8.260;2022-10-19T13:05:26;21.20;29.40
32895;DHT22;19251;49.484;8.260;2022-10-19T13:10:31;21.20;29.40
32895;DHT22;19251;49.484;8.260;2022-10-19T13:25:44;21.50;29.40
32895;DHT22;19251;49.484;8.260;2022-10-19T13:36:04;21.80;29.10
32895;DHT22;19251;49.484;8.260;2022-10-19T13:41:21;21.80;29.30
32895;DHT22;19251;49.484;8.260;2022-10-19T13:51:48;21.90;28.70
32895;DHT22;19251;49.484;8.260;2022-10-19T14:02:35;22.20;28.90
32895;DHT22;19251;49.484;8.260;2022-10-19T14:08:02;22.30;28.00
32895;DHT22;19251;49.484;8.260;2022-10-19T14:13:12;22.30;28.20
32895;DHT22;19251;49.484;8.260;2022-10-19T14:18:29;22.30;28.00
32895;DHT22;19251;49.484;8.260;2022-10-19T14:23:34;22.30;28.10
32895;DHT22;19251;49.484;8.260;2022-10-19T14:28:38;22.30;27.60
32895;DHT22;19251;49.484;8.260;2022-10-19T14:33:47;22.30;28.00
32895;DHT22;19251;49.484;8.260;2022-10-19T14:38:53;22.20;27.60
32895;DHT22;19251;49.484;8.260;2022-10-19T14:43:56;22.30;27.60
32895;DHT22;19251;49.484;8.260;2022-10-19T14:49:10;22.20;28.20
32895;DHT22;19251;49.484;8.260;2022-10-19T14:54:36;22.10;27.60
32895;DHT22;19251;49.484;8.260;2022-10-19T14:59:50;22.30;27.50
32895;DHT22;19251;49.484;8.260;2022-10-19T15:04:56;22.30;28.00
32895;DHT22;19251;49.484;8.260;2022-10-19T15:10:02;22.30;27.20
32895;DHT22;19251;49.484;8.260;2022-10-19T15:15:29;22.30;27.00
32895;DHT22;19251;49.484;8.260;2022-10-19T15:20:35;22.20;27.40
32895;DHT22;19251;49.484;8.260;2022-10-19T15:31:24;22.00;26.90
32895;DHT22;19251;49.484;8.260;2022-10-19T15:36:28;21.80;27.00
32895;DHT22;19251;49.484;8.260;2022-10-19T15:41:34;21.80;27.70
32895;DHT22;19251;49.484;8.260;2022-10-19T15:51:49;21.50;26.70
32895;DHT22;19251;49.484;8.260;2022-10-19T15:56:51;21.40;26.30
32895;DHT22;19251;49.484;8.260;2022-10-19T16:01:53;21.20;26.50
32895;DHT22;19251;49.484;8.260;2022-10-19T16:06:57;21.30;26.50
32895;DHT22;19251;49.484;8.260;2022-10-19T16:11:59;20.70;26.20
32895;DHT22;19251;49.484;8.260;2022-10-19T16:17:01;20.60;26.30
32895;DHT22;19251;49.484;8.260;2022-10-19T16:22:03;20.40;26.40
32895;DHT22;19251;49.484;8.260;2022-10-19T16:27:07;20.10;26.50
32895;DHT22;19251;49.484;8.260;2022-10-19T16:32:09;20.00;26.40
32895;DHT22;19251;49.484;8.260;2022-10-19T16:42:14;19.50;26.30
32895;DHT22;19251;49.484;8.260;2022-10-19T16:52:19;19.20;26.60
32895;DHT22;19251;49.484;8.260;2022-10-19T16:57:21;19.20;27.60
32895;DHT22;19251;49.484;8.260;2022-10-19T17:02:24;18.80;27.20
32895;DHT22;19251;49.484;8.260;2022-10-19T17:07:26;18.70;27.40
32895;DHT22;19251;49.484;8.260;2022-10-19T17:12:28;18.70;28.40
32895;DHT22;19251;49.484;8.260;2022-10-19T17:17:30;18.60;27.80
32895;DHT22;19251;49.484;8.260;2022-10-19T17:22:32;18.60;27.90
32895;DHT22;19251;49.484;8.260;2022-10-19T17:27:35;18.60;28.10
32895;DHT22;19251;49.484;8.260;2022-10-19T17:32:37;18.60;28.10
32895;DHT22;19251;49.484;8.260;2022-10-19T17:37:39;18.50;28.30
32895;DHT22;19251;49.484;8.260;2022-10-19T17:42:41;18.50;28.40
32895;DHT22;19251;49.484;8.260;2022-10-19T17:47:43;18.50;28.50
32895;DHT22;19251;49.484;8.260;2022-10-19T17:52:45;18.40;28.40
32895;DHT22;19251;49.484;8.260;2022-10-19T17:57:48;18.60;28.60
32895;DHT22;19251;49.484;8.260;2022-10-19T18:02:50;18.40;28.60
32895;DHT22;19251;49.484;8.260;2022-10-19T18:07:52;18.40;28.70
32895;DHT22;19251;49.484;8.260;2022-10-19T18:17:57;18.30;28.70
32895;DHT22;19251;49.484;8.260;2022-10-19T18:22:59;18.30;28.80
32895;DHT22;19251;49.484;8.260;2022-10-19T18:28:01;18.30;28.80
32895;DHT22;19251;49.484;8.260;2022-10-19T18:33:04;17.90;28.50
32895;DHT22;19251;49.484;8.260;2022-10-19T18:38:06;18.30;28.70
32895;DHT22;19251;49.484;8.260;2022-10-19T18:43:09;18.30;29.40
32895;DHT22;19251;49.484;8.260;2022-10-19T18:48:11;18.20;28.80
32895;DHT22;19251;49.484;8.260;2022-10-19T18:53:13;18.20;28.80
32895;DHT22;19251;49.484;8.260;2022-10-19T18:58:15;18.10;28.70
32895;DHT22;19251;49.484;8.260;2022-10-19T19:03:17;18.10;28.60
32895;DHT22;19251;49.484;8.260;2022-10-19T19:08:21;17.90;28.50
32895;DHT22;19251;49.484;8.260;2022-10-19T19:13:23;17.70;28.50
32895;DHT22;19251;49.484;8.260;2022-10-19T19:18:26;17.60;28.60
32895;DHT22;19251;49.484;8.260;2022-10-19T19:23:28;17.50;28.60
32895;DHT22;19251;49.484;8.260;2022-10-19T19:28:30;17.40;28.60
32895;DHT22;19251;49.484;8.260;2022-10-19T19:33:32;17.30;28.50
32895;DHT22;19251;49.484;8.260;2022-10-19T19:38:35;17.10;28.60
32895;DHT22;19251;49.484;8.260;2022-10-19T19:43:37;16.90;28.50
32895;DHT22;19251;49.484;8.260;2022-10-19T19:48:41;16.80;28.80
32895;DHT22;19251;49.484;8.260;2022-10-19T19:58:46;16.60;28.80
32895;DHT22;19251;49.484;8.260;2022-10-19T20:03:49;16.50;28.80
32895;DHT22;19251;49.484;8.260;2022-10-19T20:08:51;16.40;29.00
32895;DHT22;19251;49.484;8.260;2022-10-19T20:13:54;16.40;29.20
32895;DHT22;19251;49.484;8.260;2022-10-19T20:19:06;15.90;28.70
32895;DHT22;19251;49.484;8.260;2022-10-19T20:24:09;16.40;29.10
32895;DHT22;19251;49.484;8.260;2022-10-19T20:29:11;16.30;29.20
32895;DHT22;19251;49.484;8.260;2022-10-19T20:34:14;16.20;29.60
32895;DHT22;19251;49.484;8.260;2022-10-19T20:39:16;16.20;29.80
32895;DHT22;19251;49.484;8.260;2022-10-19T20:44:18;16.30;29.70
32895;DHT22;19251;49.484;8.260;2022-10-19T20:49:20;16.20;29.60
32895;DHT22;19251;49.484;8.260;2022-10-19T20:54:23;16.10;29.40
32895;DHT22;19251;49.484;8.260;2022-10-19T20:59:25;16.00;29.30
32895;DHT22;19251;49.484;8.260;2022-10-19T21:04:31;15.90;29.40
32895;DHT22;19251;49.484;8.260;2022-10-19T21:09:33;15.80;29.30
32895;DHT22;19251;49.484;8.260;2022-10-19T21:14:35;15.30;29.20
32895;DHT22;19251;49.484;8.260;2022-10-19T21:19:38;15.70;29.60
32895;DHT22;19251;49.484;8.260;2022-10-19T21:29:43;15.40;29.60
32895;DHT22;19251;49.484;8.260;2022-10-19T21:34:45;15.30;29.50
32895;DHT22;19251;49.484;8.260;2022-10-19T21:39:47;15.30;29.50
32895;DHT22;19251;49.484;8.260;2022-10-19T21:44:49;15.10;29.30
32895;DHT22;19251;49.484;8.260;2022-10-19T21:50:02;15.10;29.30
32895;DHT22;19251;49.484;8.260;2022-10-19T21:55:04;15.10;29.30
32895;DHT22;19251;49.484;8.260;2022-10-19T22:00:07;15.00;29.20
32895;DHT22;19251;49.484;8.260;2022-10-19T22:05:13;14.90;29.20
32895;DHT22;19251;49.484;8.260;2022-10-19T22:10:16;14.80;29.10
32895;DHT22;19251;49.484;8.260;2022-10-19T22:15:18;14.80;29.20
32895;DHT22;19251;49.484;8.260;2022-10-19T22:20:20;14.70;29.20
32895;DHT22;19251;49.484;8.260;2022-10-19T22:25:22;14.70;29.80
32895;DHT22;19251;49.484;8.260;2022-10-19T22:30:24;14.60;29.40
32895;DHT22;19251;49.484;8.260;2022-10-19T22:35:26;14.50;29.40
32895;DHT22;19251;49.484;8.260;2022-10-19T22:40:28;14.70;29.60
32895;DHT22;19251;49.484;8.260;2022-10-19T22:55:36;14.30;29.50
32895;DHT22;19251;49.484;8.260;2022-10-19T23:00:38;14.20;29.50
32895;DHT22;19251;49.484;8.260;2022-10-19T23:05:40;14.10;29.50
32895;DHT22;19251;49.484;8.260;2022-10-19T23:10:42;14.00;29.50
32895;DHT22;19251;49.484;8.260;2022-10-19T23:15:44;14.00;29.60
32895;DHT22;19251;49.484;8.260;2022-10-19T23:20:53;14.00;29.60
32895;DHT22;19251;49.484;8.260;2022-10-19T23:31:15;13.80;29.70
32895;DHT22;19251;49.484;8.260;2022-10-19T23:36:24;13.80;30.10
32895;DHT22;19251;49.484;8.260;2022-10-19T23:41:27;13.70;29.70
32895;DHT22;19251;49.484;8.260;2022-10-19T23:46:29;13.70;29.80
32895;DHT22;19251;49.484;8.260;2022-10-19T23:51:31;13.70;30.40
32895;DHT22;19251;49.484;8.260;2022-10-19T23:56:33;13.60;29.70
